Time;durP1;ratioP1;P1;durP2;ratioP2;P2;SDS_P1;SDS_P2;PMS_P1;PMS_P2;Temp;Humidity;BMP_temperature;BMP_pressure;BME280_temperature;BME280_humidity;BME280_pressure;Samples;Min_cycle;Max_cycle;Signal;HPM_P1;HPM_P2
2023/08/26 00:00:13;;;;;;;;;0.00;0.00;;;;;25.90;70.58;100648.25;2114132;27;46345;-76
2023/08/26 00:01:13;;;;;;;;;1.00;0.00;;;;;25.89;70.19;100649.25;2113548;27;46661;-75
2023/08/26 00:02:13;;;;;;;;;0.00;0.00;;;;;25.86;70.85;100646.78;2123189;27;46268;-76
2023/08/26 00:03:14;;;;;;;;;1.33;1.33;;;;;25.88;71.07;100652.97;2116904;27;45878;-76
2023/08/26 00:04:15;;;;;;;;;0.33;0.33;;;;;25.87;71.08;100645.81;2116175;27;46853;-76
2023/08/26 00:05:15;;;;;;;;;0.33;0.33;;;;;25.87;70.36;100645.81;2113905;27;46460;-76
2023/08/26 00:06:15;;;;;;;;;0.00;0.00;;;;;25.83;71.11;100648.94;2114147;27;45654;-76
2023/08/26 00:07:16;;;;;;;;;0.00;0.00;;;;;25.83;71.12;100648.94;2122868;27;46510;-75
2023/08/26 00:08:16;;;;;;;;;0.00;0.00;;;;;25.87;70.39;100651.25;2122544;27;46069;-74
2023/08/26 00:09:16;;;;;;;;;0.00;0.00;;;;;25.87;70.97;100647.66;2123188;27;46091;-76
2023/08/26 00:10:16;;;;;;;;;0.00;0.00;;;;;25.88;70.18;100649.38;2114543;27;45912;-76
2023/08/26 00:11:17;;;;;;;;;0.00;0.00;;;;;25.87;70.39;100653.09;2115379;27;46018;-77
2023/08/26 00:12:28;;;;;;;;;0.25;0.25;;;;;25.85;70.48;100646.94;2107809;27;46197;-77
2023/08/26 00:13:28;;;;;;;;;0.75;0.75;;;;;25.84;70.73;100642.50;2115765;27;46509;-74
2023/08/26 00:14:28;;;;;;;;;0.00;0.00;;;;;25.84;70.73;100648.78;2122838;27;46182;-75
2023/08/26 00:15:29;;;;;;;;;0.00;0.00;;;;;25.83;69.81;100649.78;2122928;27;46957;-75
2023/08/26 00:16:29;;;;;;;;;0.00;0.00;;;;;25.83;69.96;100649.78;2122740;27;46593;-75
2023/08/26 00:17:30;;;;;;;;;0.00;0.00;;;;;25.83;70.14;100648.94;2118158;27;46467;-74
2023/08/26 00:18:31;;;;;;;;;0.00;0.00;;;;;25.83;70.46;100647.06;2114461;27;45581;-76
2023/08/26 00:19:31;;;;;;;;;1.00;0.00;;;;;25.83;70.65;100638.91;2122631;27;45519;-75
2023/08/26 00:20:31;;;;;;;;;0.00;0.00;;;;;25.84;69.83;100651.50;2121445;27;45437;-75
2023/08/26 00:21:31;;;;;;;;;0.00;0.00;;;;;25.80;69.88;100642.78;2114870;27;45926;-74
2023/08/26 00:22:32;;;;;;;;;0.67;0.67;;;;;25.81;69.96;100649.94;2120526;27;45597;-74
2023/08/26 00:23:32;;;;;;;;;1.00;1.00;;;;;25.81;69.76;100643.63;2122829;27;45508;-75
2023/08/26 00:24:33;;;;;;;;;0.00;0.00;;;;;25.83;69.97;100649.78;2122402;27;47931;-75
2023/08/26 00:25:33;;;;;;;;;0.67;0.67;;;;;25.80;70.20;100641.91;2121699;27;45622;-75
2023/08/26 00:26:34;;;;;;;;;0.00;0.00;;;;;25.80;70.48;100644.63;2120325;27;46246;-74
2023/08/26 00:27:34;;;;;;;;;0.67;0.67;;;;;25.79;70.62;100638.31;2114239;27;46387;-75
2023/08/26 00:28:35;;;;;;;;;0.00;0.00;;;;;25.78;70.29;100636.56;2122836;27;45527;-74
2023/08/26 00:29:36;;;;;;;;;1.25;1.00;;;;;25.79;70.36;100637.44;2122842;27;46415;-74
2023/08/26 00:30:36;;;;;;;;;0.00;0.00;;;;;25.77;70.19;100634.84;2122586;27;46215;-74
2023/08/26 00:31:37;;;;;;;;;0.00;0.00;;;;;25.74;70.76;100636.97;2113442;27;46284;-76
2023/08/26 00:32:38;;;;;;;;;0.75;0.00;;;;;25.75;70.92;100631.41;2113755;27;47127;-76
2023/08/26 00:33:38;;;;;;;;;2.00;1.00;;;;;25.74;70.86;100635.13;2122592;27;46631;-75
2023/08/26 00:34:39;;;;;;;;;0.33;0.33;;;;;25.74;70.75;100635.13;2123039;27;45755;-75
2023/08/26 00:35:39;;;;;;;;;1.00;1.00;;;;;25.73;70.95;100636.13;2122700;27;46680;-74
2023/08/26 00:36:39;;;;;;;;;1.00;1.00;;;;;25.73;71.07;100635.25;2121976;27;46308;-74
2023/08/26 00:37:40;;;;;;;;;0.00;0.00;;;;;25.74;70.63;100636.97;2122676;27;46283;-75
2023/08/26 00:38:40;;;;;;;;;0.00;0.00;;;;;25.72;70.84;100633.53;2118595;27;46119;-75
2023/08/26 00:39:40;;;;;;;;;0.00;0.00;;;;;25.69;70.92;100631.09;2117567;27;45766;-74
2023/08/26 00:40:41;;;;;;;;;0.67;0.67;;;;;25.67;70.70;100628.47;2122837;27;46017;-75
2023/08/26 00:41:41;;;;;;;;;1.67;1.67;;;;;25.66;71.42;100626.72;2120974;27;45477;-75
2023/08/26 00:42:41;;;;;;;;;1.00;0.00;;;;;25.70;70.81;100627.38;2117599;27;45342;-74
2023/08/26 00:43:42;;;;;;;;;0.00;0.00;;;;;25.67;71.56;100627.63;2122683;27;46673;-75
2023/08/26 00:44:42;;;;;;;;;0.33;0.33;;;;;25.63;71.16;100637.00;2122630;27;46218;-75
2023/08/26 00:45:43;;;;;;;;;1.00;1.00;;;;;25.67;71.27;100628.47;2122808;27;45066;-75
2023/08/26 00:46:45;;;;;;;;;0.00;0.00;;;;;25.63;71.72;100634.28;2122752;27;45988;-75
2023/08/26 00:47:45;;;;;;;;;0.00;0.00;;;;;25.63;71.66;100626.13;2122658;27;46249;-75
2023/08/26 00:48:46;;;;;;;;;0.00;0.00;;;;;25.59;71.60;100630.13;2122564;27;46700;-75
2023/08/26 00:49:46;;;;;;;;;1.00;1.00;;;;;25.60;71.70;100626.41;2119938;27;45117;-76
2023/08/26 00:50:49;;;;;;;;;0.67;0.67;;;;;25.59;71.39;100630.13;2118481;27;45543;-75
2023/08/26 00:51:50;;;;;;;;;0.25;0.00;;;;;25.58;71.36;100633.84;2122444;27;47260;-74
2023/08/26 00:52:52;;;;;;;;;0.00;0.00;;;;;25.60;71.56;100637.28;2113581;27;45746;-76
2023/08/26 00:53:54;;;;;;;;;0.00;0.00;;;;;25.56;71.66;100624.97;2113857;27;45976;-74
2023/08/26 00:54:54;;;;;;;;;1.25;1.25;;;;;25.50;71.99;100629.91;2122462;27;46084;-75
2023/08/26 00:55:55;;;;;;;;;1.00;0.00;;;;;25.57;71.42;100626.69;2122233;27;46499;-76
2023/08/26 00:56:55;;;;;;;;;1.33;1.00;;;;;25.60;71.19;100627.28;2122976;27;45538;-75
2023/08/26 00:57:56;;;;;;;;;0.33;0.00;;;;;25.52;71.46;100636.06;2119479;27;45422;-74
2023/08/26 00:58:56;;;;;;;;;2.00;0.00;;;;;25.51;71.45;100626.19;2104540;28;47538;-74
2023/08/26 00:59:57;;;;;;;;;1.00;1.00;;;;;25.52;71.19;100636.06;2111282;27;45717;-74
2023/08/26 01:00:57;;;;;;;;;0.00;0.00;;;;;25.48;71.65;100623.75;2108322;27;46063;-74
2023/08/26 01:01:59;;;;;;;;;0.00;0.00;;;;;25.51;71.82;100620.75;2122663;27;45523;-74
2023/08/26 01:02:59;;;;;;;;;0.00;0.00;;;;;25.47;71.86;100624.75;2114361;27;46156;-74
2023/08/26 01:04:00;;;;;;;;;0.67;0.00;;;;;25.48;72.08;100621.03;2113424;27;46682;-74
2023/08/26 01:05:01;;;;;;;;;0.33;0.00;;;;;25.52;71.89;100619.75;2123384;27;46798;-74
2023/08/26 01:06:01;;;;;;;;;0.33;0.00;;;;;25.49;71.72;100624.59;2122510;27;45883;-76
2023/08/26 01:07:01;;;;;;;;;0.67;0.67;;;;;25.46;71.99;100624.88;2122873;27;46395;-75
2023/08/26 01:08:04;;;;;;;;;0.00;0.00;;;;;25.46;72.24;100624.88;2121832;27;46129;-75
2023/08/26 01:09:04;;;;;;;;;0.00;0.00;;;;;25.43;72.02;100619.72;2121631;27;45745;-74
2023/08/26 01:10:06;;;;;;;;;0.00;0.00;;;;;25.42;72.00;100623.44;2114358;27;46364;-75
2023/08/26 01:11:28;;;;;;;;;1.00;1.00;;;;;25.41;71.69;100624.38;2120355;27;46587;-75
2023/08/26 01:12:36;;;;;;;;;2.00;0.00;;;;;25.40;72.37;100620.81;2113259;27;46603;-76
2023/08/26 01:14:01;;;;;;;;;1.00;0.50;;;;;25.44;72.28;100624.16;2115072;27;45760;-77
2023/08/26 01:15:12;;;;;;;;;0.00;0.00;;;;;25.41;71.66;100618.97;2116962;27;46898;-75
2023/08/26 01:16:13;;;;;;;;;0.00;0.00;;;;;25.38;71.73;100621.94;2115646;27;46334;-75
2023/08/26 01:17:15;;;;;;;;;0.00;0.00;;;;;25.36;71.71;100618.50;2113744;27;46829;-75
2023/08/26 01:18:16;;;;;;;;;0.50;0.50;;;;;25.35;72.09;100614.06;2113851;27;46665;-75
2023/08/26 01:19:38;;;;;;;;;1.00;1.00;;;;;25.34;72.23;100626.78;2120246;27;46247;-75
2023/08/26 01:20:41;;;;;;;;;0.25;0.25;;;;;25.31;72.11;100620.75;2122533;27;45128;-75
2023/08/26 01:21:46;;;;;;;;;1.00;0.25;;;;;25.24;72.46;100623.13;2122848;27;46154;-75
2023/08/26 01:22:50;;;;;;;;;0.00;0.00;;;;;25.33;72.62;100624.19;2122478;27;46431;-75
2023/08/26 01:23:50;;;;;;;;;0.00;0.00;;;;;25.38;72.41;100628.22;2122737;27;46349;-74
2023/08/26 01:24:51;;;;;;;;;0.00;0.00;;;;;25.40;72.39;100628.09;2122687;27;46395;-75
2023/08/26 01:25:52;;;;;;;;;2.00;0.00;;;;;25.40;72.12;100634.41;2119744;27;46317;-74
2023/08/26 01:26:52;;;;;;;;;0.00;0.00;;;;;25.40;72.40;100634.41;2122235;27;46908;-73
2023/08/26 01:27:54;;;;;;;;;1.00;1.00;;;;;25.37;72.48;100636.53;2122453;27;46696;-75
2023/08/26 01:28:54;;;;;;;;;0.00;0.00;;;;;25.38;71.84;100636.38;2122740;27;46317;-75
2023/08/26 01:29:56;;;;;;;;;0.00;0.00;;;;;25.34;72.03;100625.91;2119986;27;45607;-76
2023/08/26 01:30:59;;;;;;;;;0.00;0.00;;;;;25.36;71.70;100632.09;2120517;27;46237;-75
2023/08/26 01:32:28;;;;;;;;;0.00;0.00;;;;;25.37;71.09;100629.22;2121729;27;47004;-76
2023/08/26 01:33:33;;;;;;;;;0.00;0.00;;;;;25.38;71.34;100628.22;2121926;27;46261;-75
2023/08/26 01:34:37;;;;;;;;;0.00;0.00;;;;;25.34;71.07;100626.78;2122572;27;46965;-76
2023/08/26 01:35:41;;;;;;;;;0.00;0.00;;;;;25.31;71.58;100627.06;2121721;27;45875;-75
2023/08/26 01:36:44;;;;;;;;;2.00;0.50;;;;;25.31;71.62;100635.19;2121902;27;46510;-75
2023/08/26 01:37:45;;;;;;;;;1.00;0.00;;;;;25.29;71.77;100623.59;2113753;27;46223;-74
2023/08/26 01:38:50;;;;;;;;;0.00;0.00;;;;;25.34;71.63;100624.06;2113432;27;46002;-74
2023/08/26 01:39:54;;;;;;;;;0.00;0.00;;;;;25.34;71.64;100626.78;2109903;27;47035;-75
2023/08/26 01:40:56;;;;;;;;;0.00;0.00;;;;;25.35;72.35;100630.34;2105100;27;46879;-75
2023/08/26 01:42:00;;;;;;;;;0.00;0.00;;;;;25.33;72.44;100626.91;2118018;27;46714;-75
2023/08/26 01:43:03;;;;;;;;;0.00;0.00;;;;;25.33;72.23;100624.19;2122307;27;47041;-74
2023/08/26 01:44:05;;;;;;;;;0.00;0.00;;;;;25.32;72.81;100622.47;2122214;27;46922;-75
2023/08/26 01:45:06;;;;;;;;;1.50;1.00;;;;;25.36;72.09;100621.22;2122374;27;46807;-75
2023/08/26 01:46:06;;;;;;;;;0.00;0.00;;;;;25.18;72.61;100619.06;2111456;27;46863;-75
2023/08/26 01:47:10;;;;;;;;;0.00;0.00;;;;;25.34;73.12;100618.63;2113275;27;46615;-76
2023/08/26 01:48:10;;;;;;;;;0.00;0.00;;;;;25.37;72.04;100615.66;2116610;27;45884;-74
2023/08/26 01:49:11;;;;;;;;;0.00;0.00;;;;;25.38;72.20;100611.94;2122386;27;46066;-76
2023/08/26 01:50:11;;;;;;;;;0.00;0.00;;;;;25.38;72.82;100614.66;2122408;27;46411;-74
2023/08/26 01:51:12;;;;;;;;;2.00;0.67;;;;;25.37;72.30;100615.66;2121753;27;46695;-74
2023/08/26 01:52:13;;;;;;;;;0.00;0.00;;;;;25.37;72.94;100617.50;2117749;27;46764;-74
2023/08/26 01:53:13;;;;;;;;;0.00;0.00;;;;;25.35;72.71;100606.78;2122252;27;46673;-74
2023/08/26 01:54:13;;;;;;;;;0.00;0.00;;;;;25.34;73.12;100602.34;2122338;27;46808;-75
2023/08/26 01:55:14;;;;;;;;;0.00;0.00;;;;;25.34;73.34;100615.06;2122323;27;46491;-75
2023/08/26 01:56:14;;;;;;;;;0.00;0.00;;;;;25.31;73.15;100607.19;2122044;27;46652;-75
2023/08/26 01:57:15;;;;;;;;;0.00;0.00;;;;;25.29;73.77;100610.03;2122624;27;46107;-74
2023/08/26 01:58:16;;;;;;;;;2.00;0.00;;;;;25.28;74.25;100605.56;2113049;27;45971;-74
2023/08/26 01:59:16;;;;;;;;;0.00;0.00;;;;;25.28;74.19;100607.41;2112634;27;46174;-75
2023/08/26 02:00:17;;;;;;;;;0.00;0.00;;;;;25.26;74.26;100607.53;2122072;27;45786;-74
2023/08/26 02:01:17;;;;;;;;;0.00;0.00;;;;;25.26;74.59;100612.13;2122596;27;45921;-74
2023/08/26 02:02:17;;;;;;;;;0.00;0.00;;;;;25.26;75.03;100612.97;2121133;27;46710;-74
2023/08/26 02:03:18;;;;;;;;;0.00;0.00;;;;;25.23;75.40;100610.53;2121762;27;45176;-75
2023/08/26 02:04:19;;;;;;;;;0.00;0.00;;;;;25.22;75.28;100606.94;2122358;27;45538;-75
2023/08/26 02:05:20;;;;;;;;;0.00;0.00;;;;;25.20;74.75;100608.94;2112731;27;46670;-75
2023/08/26 02:06:20;;;;;;;;;0.00;0.00;;;;;25.19;75.44;100598.22;2113222;27;46603;-76
2023/08/26 02:07:20;;;;;;;;;0.00;0.00;;;;;25.20;75.16;100606.22;2122167;27;46188;-75
2023/08/26 02:08:21;;;;;;;;;0.00;0.00;;;;;25.12;75.06;100606.00;2122181;27;45310;-77
2023/08/26 02:09:21;;;;;;;;;0.00;0.00;;;;;25.15;75.59;100605.72;2103563;28;45475;-75
2023/08/26 02:10:22;;;;;;;;;0.00;0.00;;;;;25.10;75.05;100605.28;2104213;28;46404;-75
2023/08/26 02:11:22;;;;;;;;;0.00;0.00;;;;;25.15;75.41;100603.00;2104498;28;45134;-75
2023/08/26 02:12:22;;;;;;;;;0.00;0.00;;;;;25.11;74.88;100596.13;2104432;28;46868;-76
2023/08/26 02:13:25;;;;;;;;;1.00;0.67;;;;;25.13;74.57;100596.00;2104508;28;47080;-75
2023/08/26 02:14:25;;;;;;;;;0.00;0.00;;;;;25.14;74.18;100595.00;2103928;28;45949;-75
2023/08/26 02:15:25;;;;;;;;;0.00;0.00;;;;;25.14;74.62;100593.16;2104599;28;46127;-76
2023/08/26 02:16:27;;;;;;;;;0.00;0.00;;;;;25.14;74.68;100600.44;2104150;28;46624;-75
2023/08/26 02:17:27;;;;;;;;;0.00;0.00;;;;;25.12;74.56;100594.28;2086788;28;46363;-76
2023/08/26 02:18:27;;;;;;;;;0.00;0.00;;;;;24.95;74.89;100584.81;2086976;28;46653;-73
2023/08/26 02:19:28;;;;;;;;;0.00;0.00;;;;;25.05;75.18;100595.81;2108766;27;45894;-75
2023/08/26 02:20:28;;;;;;;;;0.00;0.00;;;;;25.06;75.40;100589.38;2105940;27;45893;-75
2023/08/26 02:21:28;;;;;;;;;0.00;0.00;;;;;25.10;75.08;100599.84;2095658;28;46320;-75
2023/08/26 02:22:29;;;;;;;;;2.00;0.33;;;;;25.10;74.26;100588.13;2095570;28;46318;-75
2023/08/26 02:23:29;;;;;;;;;0.00;0.00;;;;;25.18;75.03;100588.34;2104303;27;45569;-73
2023/08/26 02:24:30;;;;;;;;;1.33;1.00;;;;;25.14;74.62;100592.28;2095826;28;45708;-75
2023/08/26 02:25:30;;;;;;;;;0.00;0.00;;;;;25.11;74.69;100589.84;2098991;28;46917;-75
2023/08/26 02:26:30;;;;;;;;;0.00;0.00;;;;;25.07;75.02;100585.66;2104069;28;46807;-75
2023/08/26 02:27:31;;;;;;;;;0.00;0.00;;;;;25.10;75.21;100588.13;2104061;28;45810;-75
2023/08/26 02:28:31;;;;;;;;;0.00;0.00;;;;;25.08;75.00;100581.97;2103590;28;46613;-75
2023/08/26 02:29:32;;;;;;;;;0.00;0.00;;;;;25.05;75.21;100582.22;2104007;28;46430;-76
2023/08/26 02:30:33;;;;;;;;;0.00;0.00;;;;;25.01;75.42;100584.31;2103473;28;46760;-74
2023/08/26 02:31:34;;;;;;;;;2.25;0.00;;;;;24.99;75.53;100578.13;2104224;28;46359;-75
2023/08/26 02:32:34;;;;;;;;;0.00;0.00;;;;;25.00;75.72;100579.84;2095320;28;45498;-74
2023/08/26 02:33:34;;;;;;;;;0.00;0.00;;;;;24.89;75.25;100579.88;2095557;28;45927;-75
2023/08/26 02:34:37;;;;;;;;;0.67;0.67;;;;;24.85;76.47;100583.84;2104242;28;45560;-74
2023/08/26 02:35:37;;;;;;;;;0.00;0.00;;;;;24.83;76.64;100580.41;2103780;28;46875;-75
2023/08/26 02:36:37;;;;;;;;;0.00;0.00;;;;;24.82;76.32;100592.25;2102625;28;45695;-75
2023/08/26 02:37:38;;;;;;;;;0.67;0.00;;;;;24.97;76.42;100582.81;2104284;28;45196;-76
2023/08/26 02:38:38;;;;;;;;;0.00;0.00;;;;;24.98;76.09;100581.84;2103954;28;45775;-75
2023/08/26 02:39:39;;;;;;;;;1.67;0.00;;;;;24.98;75.29;100580.97;2101778;28;45917;-75
2023/08/26 02:40:39;;;;;;;;;0.00;0.00;;;;;24.99;75.36;100580.84;2105107;27;45762;-74
2023/08/26 02:41:40;;;;;;;;;0.00;0.00;;;;;24.98;75.87;100581.84;2122094;27;45910;-75
2023/08/26 02:42:40;;;;;;;;;0.00;0.00;;;;;24.98;75.84;100581.84;2121419;27;46869;-75
2023/08/26 02:43:40;;;;;;;;;0.00;0.00;;;;;25.00;75.74;100576.28;2121830;27;46777;-74
2023/08/26 02:44:41;;;;;;;;;0.00;0.00;;;;;25.00;75.61;100584.41;2120798;27;46417;-75
2023/08/26 02:45:41;;;;;;;;;0.00;0.00;;;;;25.00;75.26;100584.41;2114375;27;45697;-74
2023/08/26 02:46:41;;;;;;;;;0.00;0.00;;;;;25.00;75.75;100584.41;2118587;27;46487;-75
2023/08/26 02:47:42;;;;;;;;;1.00;1.00;;;;;24.99;75.84;100583.56;2112941;27;46130;-75
2023/08/26 02:48:42;;;;;;;;;0.00;0.00;;;;;24.99;75.61;100574.53;2104844;28;46543;-76
2023/08/26 02:49:42;;;;;;;;;1.00;1.00;;;;;24.98;75.91;100579.13;2110908;27;46834;-75
2023/08/26 02:50:43;;;;;;;;;0.00;0.00;;;;;24.97;76.06;100577.41;2117070;27;46861;-75
2023/08/26 02:51:43;;;;;;;;;0.00;0.00;;;;;24.97;75.76;100580.09;2120723;27;46397;-76
2023/08/26 02:52:43;;;;;;;;;0.00;0.00;;;;;24.97;75.66;100574.69;2114186;27;45052;-73
2023/08/26 02:53:43;;;;;;;;;0.00;0.00;;;;;24.97;76.13;100573.81;2122137;27;46440;-75
2023/08/26 02:54:44;;;;;;;;;0.00;0.00;;;;;24.95;75.85;100574.81;2120835;27;46955;-74
2023/08/26 02:55:44;;;;;;;;;0.00;0.00;;;;;24.95;76.23;100582.09;2121763;27;46677;-75
2023/08/26 02:56:44;;;;;;;;;0.00;0.00;;;;;24.94;76.14;100583.94;2122174;27;45570;-73
2023/08/26 02:57:45;;;;;;;;;1.00;0.00;;;;;24.87;76.03;100579.16;2122003;27;46324;-75
2023/08/26 02:58:45;;;;;;;;;0.00;0.00;;;;;24.74;77.04;100573.88;2102946;28;46334;-74
2023/08/26 02:59:45;;;;;;;;;0.00;0.00;;;;;24.84;77.27;100572.13;2098588;28;46797;-74
2023/08/26 03:00:47;;;;;;;;;0.00;0.00;;;;;24.87;76.70;100568.28;2113313;27;44997;-74
2023/08/26 03:01:57;;;;;;;;;0.00;0.00;;;;;24.88;76.34;100572.72;2113311;27;46462;-74
2023/08/26 03:02:58;;;;;;;;;0.00;0.00;;;;;24.86;76.92;100562.00;2121882;27;45278;-74
2023/08/26 03:03:58;;;;;;;;;0.00;0.00;;;;;24.85;76.51;100565.72;2121725;27;46198;-73
2023/08/26 03:04:58;;;;;;;;;0.00;0.00;;;;;24.85;76.56;100564.84;2113648;27;46166;-74
2023/08/26 03:05:59;;;;;;;;;1.00;1.00;;;;;24.83;77.46;100561.41;2116200;27;45190;-74
2023/08/26 03:06:59;;;;;;;;;0.00;0.00;;;;;24.83;76.78;100564.97;2122020;27;46386;-74
2023/08/26 03:08:00;;;;;;;;;0.00;0.00;;;;;24.82;77.49;100567.84;2115843;27;46269;-74
2023/08/26 03:09:00;;;;;;;;;0.67;0.67;;;;;24.82;77.54;100563.25;2116977;27;45982;-74
2023/08/26 03:10:00;;;;;;;;;1.33;1.33;;;;;24.79;77.63;100555.38;2104280;28;46148;-74
2023/08/26 03:11:03;;;;;;;;;1.00;0.00;;;;;24.79;77.68;100559.94;2107717;27;45440;-73
2023/08/26 03:12:04;;;;;;;;;0.00;0.00;;;;;24.77;77.79;100564.63;2122062;27;45986;-74
2023/08/26 03:13:06;;;;;;;;;1.00;1.00;;;;;24.75;78.08;100555.75;2113886;27;45400;-74
2023/08/26 03:14:06;;;;;;;;;1.00;0.00;;;;;24.74;78.48;100562.16;2115466;27;46943;-74
2023/08/26 03:15:07;;;;;;;;;1.00;0.67;;;;;24.65;78.31;100564.69;2121965;27;45396;-75
2023/08/26 03:16:09;;;;;;;;;0.67;0.00;;;;;24.67;78.99;100567.25;2111718;27;46550;-74
2023/08/26 03:17:10;;;;;;;;;0.00;0.00;;;;;24.73;79.02;100563.16;2111459;27;46591;-74
2023/08/26 03:18:10;;;;;;;;;1.00;1.00;;;;;24.70;78.16;100566.13;2103731;28;46259;-74
2023/08/26 03:19:10;;;;;;;;;0.00;0.00;;;;;24.59;78.36;100556.16;2106965;27;46174;-73
2023/08/26 03:20:11;;;;;;;;;0.67;0.67;;;;;24.65;79.04;100559.25;2114611;27;46453;-75
2023/08/26 03:21:11;;;;;;;;;0.00;0.00;;;;;24.67;78.10;100559.13;2111395;27;46967;-74
2023/08/26 03:22:12;;;;;;;;;1.67;1.33;;;;;24.56;78.44;100564.56;2112046;27;45445;-74
2023/08/26 03:23:12;;;;;;;;;0.00;0.00;;;;;24.67;78.32;100556.41;2112628;27;45852;-78
2023/08/26 03:24:15;;;;;;;;;0.33;0.33;;;;;24.70;78.06;100555.28;2111880;27;46802;-75
2023/08/26 03:25:15;;;;;;;;;0.00;0.00;;;;;24.71;77.99;100557.00;2103518;27;46970;-76
2023/08/26 03:26:16;;;;;;;;;1.00;1.00;;;;;24.69;77.86;100559.84;2091865;28;46847;-73
2023/08/26 03:27:16;;;;;;;;;0.00;0.00;;;;;24.70;77.66;100556.16;2102109;27;45085;-77
2023/08/26 03:28:17;;;;;;;;;1.00;1.00;;;;;24.70;77.76;100552.56;2112524;27;45547;-77
2023/08/26 03:29:17;;;;;;;;;0.00;0.00;;;;;24.68;77.98;100557.25;2103811;28;45893;-76
2023/08/26 03:30:18;;;;;;;;;0.00;0.00;;;;;24.68;78.15;100554.56;2104435;27;46358;-76
2023/08/26 03:31:18;;;;;;;;;0.00;0.00;;;;;24.67;78.18;100552.81;2111820;27;46593;-76
2023/08/26 03:32:18;;;;;;;;;0.00;0.00;;;;;24.68;77.61;100554.56;2112141;27;45792;-75
2023/08/26 03:33:19;;;;;;;;;0.33;0.33;;;;;24.65;77.65;100548.41;2111981;27;46598;-75
2023/08/26 03:34:19;;;;;;;;;0.00;0.00;;;;;24.68;78.14;100554.56;2111929;27;46051;-77
2023/08/26 03:35:20;;;;;;;;;1.00;1.00;;;;;24.66;77.78;100549.25;2112151;27;46834;-76
2023/08/26 03:36:20;;;;;;;;;0.00;0.00;;;;;24.67;78.26;100552.81;2112345;27;46030;-76
2023/08/26 03:37:20;;;;;;;;;0.67;0.67;;;;;24.64;78.07;100551.22;2112716;27;45549;-77
2023/08/26 03:38:21;;;;;;;;;1.00;1.00;;;;;24.61;78.33;100559.59;2112176;27;46550;-75
2023/08/26 03:39:21;;;;;;;;;0.00;0.00;;;;;24.61;78.14;100560.47;2112393;27;46370;-77
2023/08/26 03:40:24;;;;;;;;;0.67;0.67;;;;;24.58;78.09;100559.88;2103781;27;46748;-75
2023/08/26 03:41:24;;;;;;;;;0.50;0.50;;;;;24.58;78.48;100562.59;2104889;27;46574;-75
2023/08/26 03:42:25;;;;;;;;;2.00;1.00;;;;;24.56;78.95;100556.44;2103868;28;45963;-77
2023/08/26 03:43:25;;;;;;;;;0.00;0.00;;;;;24.55;78.83;100558.28;2106405;27;45742;-75
2023/08/26 03:44:25;;;;;;;;;0.00;0.00;;;;;24.57;79.08;100561.72;2111825;27;46173;-74
2023/08/26 03:45:28;;;;;;;;;0.00;0.00;;;;;24.54;79.23;100561.97;2118795;27;46300;-74
2023/08/26 03:46:29;;;;;;;;;1.00;1.00;;;;;24.54;79.28;100564.69;2117556;27;46415;-77
2023/08/26 03:47:29;;;;;;;;;0.67;0.67;;;;;24.50;79.45;100560.50;2113910;27;46082;-74
2023/08/26 03:48:29;;;;;;;;;1.00;1.00;;;;;24.47;79.72;100560.75;2121361;27;45290;-73
2023/08/26 03:49:30;;;;;;;;;0.00;0.00;;;;;24.45;79.85;100554.59;2119999;27;46661;-74
2023/08/26 03:50:30;;;;;;;;;1.00;1.00;;;;;24.45;79.79;100551.03;2112512;27;46787;-74
2023/08/26 03:51:31;;;;;;;;;1.00;1.00;;;;;24.45;79.82;100553.72;2112617;27;46337;-73
2023/08/26 03:52:31;;;;;;;;;0.00;0.00;;;;;24.42;80.14;100554.00;2121002;27;46591;-74
2023/08/26 03:53:32;;;;;;;;;0.33;0.00;;;;;24.45;79.98;100554.59;2121671;27;45509;-75
2023/08/26 03:54:32;;;;;;;;;1.67;1.67;;;;;24.44;80.00;100554.72;2121735;27;46524;-73
2023/08/26 03:55:36;;;;;;;;;1.00;1.00;;;;;24.44;80.03;100542.03;2122774;27;46694;-73
2023/08/26 03:56:36;;;;;;;;;1.25;0.75;;;;;24.37;80.13;100551.63;2123089;27;46151;-73
2023/08/26 03:57:36;;;;;;;;;0.00;0.00;;;;;24.44;80.31;100552.88;2123075;27;46483;-73
2023/08/26 03:58:37;;;;;;;;;0.00;0.00;;;;;24.48;80.30;100551.63;2123166;27;47181;-74
2023/08/26 03:59:38;;;;;;;;;1.00;1.00;;;;;24.48;80.62;100559.75;2113872;27;46027;-74
2023/08/26 04:00:38;;;;;;;;;0.33;0.33;;;;;24.48;80.56;100548.91;2113501;27;46871;-74
2023/08/26 04:01:38;;;;;;;;;0.00;0.00;;;;;24.50;80.27;100556.91;2121160;27;46353;-73
2023/08/26 04:02:39;;;;;;;;;0.00;0.00;;;;;24.50;80.42;100556.91;2123851;27;45618;-74
2023/08/26 04:03:41;;;;;;;;;0.00;0.00;;;;;24.50;80.60;100555.06;2122836;27;46240;-73
2023/08/26 04:04:42;;;;;;;;;1.00;1.00;;;;;24.49;80.40;100549.78;2123184;27;47064;-75
2023/08/26 04:05:43;;;;;;;;;0.00;0.00;;;;;24.49;81.06;100552.47;2122328;27;45890;-74
2023/08/26 04:06:43;;;;;;;;;2.00;2.00;;;;;24.47;80.95;100555.31;2122312;27;46602;-73
2023/08/26 04:07:43;;;;;;;;;0.00;0.00;;;;;24.46;81.04;100556.31;2116339;27;45898;-75
2023/08/26 04:08:45;;;;;;;;;0.33;0.33;;;;;24.45;81.02;100546.47;2119559;27;45349;-74
2023/08/26 04:09:45;;;;;;;;;1.00;1.00;;;;;24.44;80.75;100549.28;2122737;27;45773;-74
2023/08/26 04:10:46;;;;;;;;;1.00;1.00;;;;;24.44;81.24;100557.44;2119658;27;45965;-74
2023/08/26 04:11:46;;;;;;;;;1.00;1.00;;;;;24.44;81.32;100560.16;2119396;27;46028;-74
2023/08/26 04:12:46;;;;;;;;;1.00;1.00;;;;;24.43;81.83;100561.13;2114635;27;45529;-75
2023/08/26 04:13:49;;;;;;;;;1.00;1.00;;;;;24.41;81.40;100563.97;2112087;27;45043;-74
2023/08/26 04:14:49;;;;;;;;;1.00;1.00;;;;;24.38;82.06;100558.78;2113730;27;46423;-74
2023/08/26 04:15:53;;;;;;;;;1.00;1.00;;;;;24.38;82.31;100566.06;2122887;27;46629;-75
2023/08/26 04:16:53;;;;;;;;;0.00;0.00;;;;;24.36;82.38;100564.34;2122367;27;45750;-73
2023/08/26 04:17:53;;;;;;;;;2.00;2.00;;;;;24.35;82.67;100564.47;2122496;27;47342;-74
2023/08/26 04:18:54;;;;;;;;;2.00;1.00;;;;;24.34;82.51;100560.03;2113457;27;47627;-75
2023/08/26 04:19:54;;;;;;;;;0.67;0.00;;;;;24.33;82.53;100556.47;2120173;27;46279;-74
2023/08/26 04:20:54;;;;;;;;;0.67;0.67;;;;;24.37;82.95;100562.47;2122613;27;47007;-73
2023/08/26 04:21:55;;;;;;;;;1.67;1.67;;;;;24.34;83.15;100555.47;2123242;27;45687;-74
2023/08/26 04:22:55;;;;;;;;;3.00;2.33;;;;;24.33;83.57;100552.88;2123045;27;46447;-72
2023/08/26 04:23:55;;;;;;;;;0.00;0.00;;;;;24.32;83.45;100551.16;2122843;27;45471;-72
2023/08/26 04:24:56;;;;;;;;;1.67;1.33;;;;;24.31;83.57;100555.72;2122838;27;46713;-75
2023/08/26 04:26:08;;;;;;;;;2.00;2.00;;;;;24.31;83.61;100557.56;2121726;27;45382;-73
2023/08/26 04:27:08;;;;;;;;;2.00;1.00;;;;;24.29;84.08;100554.09;2115379;27;45839;-74
2023/08/26 04:28:09;;;;;;;;;1.00;1.00;;;;;24.27;84.18;100554.22;2122569;27;46585;-73
2023/08/26 04:29:09;;;;;;;;;0.00;0.00;;;;;24.27;84.10;100550.66;2123200;27;46086;-73
2023/08/26 04:30:11;;;;;;;;;1.00;1.00;;;;;24.26;84.01;100557.91;2116502;27;46094;-73
2023/08/26 04:31:12;;;;;;;;;1.00;1.00;;;;;24.26;84.13;100555.19;2113760;27;46231;-74
2023/08/26 04:32:12;;;;;;;;;1.33;1.33;;;;;24.25;83.94;100555.31;2112311;27;45687;-73
2023/08/26 04:33:12;;;;;;;;;0.00;0.00;;;;;24.24;84.15;100554.44;2122899;27;46688;-74
2023/08/26 04:34:15;;;;;;;;;0.67;0.67;;;;;24.23;84.17;100554.59;2113689;27;46488;-73
2023/08/26 04:35:16;;;;;;;;;1.00;1.00;;;;;24.22;84.55;100559.16;2113796;27;46206;-74
2023/08/26 04:36:16;;;;;;;;;0.00;0.00;;;;;24.20;84.87;100557.56;2113889;27;45458;-72
2023/08/26 04:37:16;;;;;;;;;0.00;0.00;;;;;24.20;84.04;100549.41;2114025;27;45612;-73
2023/08/26 04:38:17;;;;;;;;;0.00;0.00;;;;;24.18;84.19;100549.53;2122515;27;45824;-74
2023/08/26 04:39:19;;;;;;;;;1.00;1.00;;;;;24.14;84.79;100550.78;2122891;27;46809;-73
2023/08/26 04:40:20;;;;;;;;;0.75;0.75;;;;;24.12;84.48;100541.88;2123157;27;45476;-74
2023/08/26 04:41:20;;;;;;;;;1.00;1.00;;;;;24.22;84.77;100552.84;2121803;27;45613;-75
2023/08/26 04:42:20;;;;;;;;;0.33;0.33;;;;;24.07;84.96;100555.84;2122750;27;46396;-74
2023/08/26 04:43:21;;;;;;;;;1.00;1.00;;;;;24.05;85.22;100546.97;2113910;27;45506;-73
2023/08/26 04:44:21;;;;;;;;;0.00;0.00;;;;;24.04;85.46;100547.09;2113582;27;45703;-73